createdAt,value
2018-09-12T00:01:28.534Z,14.09
2018-09-12T00:04:33.521Z,14.08
2018-09-12T00:07:38.439Z,14.05
2018-09-12T00:10:43.365Z,14.04
2018-09-12T00:13:48.424Z,13.97
2018-09-12T00:16:53.364Z,13.94
2018-09-12T00:19:58.285Z,13.93
2018-09-12T00:23:03.217Z,13.89
2018-09-12T00:26:08.129Z,13.82
2018-09-12T00:29:13.053Z,13.77
2018-09-12T00:32:17.981Z,13.76
2018-09-12T00:35:22.934Z,13.74
2018-09-12T00:38:27.872Z,13.70
2018-09-12T00:41:32.833Z,13.67
2018-09-12T00:44:37.788Z,13.69
2018-09-12T00:47:42.688Z,13.57
2018-09-12T00:50:47.651Z,13.45
2018-09-12T00:53:52.658Z,13.39
2018-09-12T00:56:57.593Z,13.43
2018-09-12T01:00:02.537Z,13.44
2018-09-12T01:03:07.453Z,13.44
2018-09-12T01:06:12.449Z,13.36
2018-09-12T01:09:17.367Z,13.37
2018-09-12T01:12:22.369Z,13.37
2018-09-12T01:15:27.281Z,13.37
2018-09-12T01:18:32.217Z,13.36
2018-09-12T01:21:37.153Z,13.38
2018-09-12T01:24:42.100Z,13.39
2018-09-12T01:27:51.616Z,13.33
2018-09-12T01:30:56.538Z,13.31
2018-09-12T01:34:01.453Z,13.28
2018-09-12T01:37:06.361Z,13.28
2018-09-12T01:40:11.291Z,13.22
2018-09-12T01:43:16.229Z,13.20
2018-09-12T01:46:21.161Z,13.21
2018-09-12T01:49:26.124Z,13.14
2018-09-12T01:52:31.106Z,13.19
2018-09-12T01:55:36.038Z,13.16
2018-09-12T01:58:40.937Z,13.12
2018-09-12T02:01:45.863Z,13.13
2018-09-12T02:04:50.816Z,13.12
2018-09-12T02:07:55.761Z,13.11
2018-09-12T02:11:00.682Z,13.10
2018-09-12T02:14:05.637Z,13.06
2018-09-12T02:17:10.574Z,13.03
2018-09-12T02:20:15.507Z,12.93
2018-09-12T02:23:20.460Z,12.90
2018-09-12T02:26:25.450Z,12.92
2018-09-12T02:29:30.380Z,12.93
2018-09-12T02:32:35.310Z,12.91
2018-09-12T02:35:45.814Z,12.84
2018-09-12T02:38:50.732Z,12.84
2018-09-12T02:41:55.653Z,12.80
2018-09-12T02:45:00.638Z,12.81
2018-09-12T02:48:05.777Z,12.85
2018-09-12T02:51:10.713Z,12.82
2018-09-12T02:54:15.666Z,12.71
2018-09-12T02:57:20.622Z,12.72
2018-09-12T03:00:25.593Z,12.70
2018-09-12T03:03:30.577Z,12.73
2018-09-12T03:06:35.497Z,12.73
2018-09-12T03:09:40.426Z,12.67
2018-09-12T03:12:45.361Z,12.64
2018-09-12T03:15:50.279Z,12.55
2018-09-12T03:18:55.200Z,12.51
2018-09-12T03:22:00.164Z,12.55
2018-09-12T03:25:05.455Z,12.57
2018-09-12T03:28:10.378Z,12.52
2018-09-12T03:31:15.288Z,12.50
2018-09-12T03:34:20.214Z,12.43
2018-09-12T03:37:25.154Z,12.42
2018-09-12T03:40:30.090Z,12.45
2018-09-12T03:43:35.046Z,12.36
2018-09-12T03:46:40.710Z,12.41
2018-09-12T03:49:45.632Z,12.47
2018-09-12T03:52:50.550Z,12.55
2018-09-12T03:55:55.472Z,12.48
2018-09-12T03:59:00.396Z,12.50
2018-09-12T04:02:05.341Z,12.45
2018-09-12T04:05:10.295Z,12.29
2018-09-12T04:08:15.237Z,12.29
2018-09-12T04:11:20.145Z,12.32
2018-09-12T04:14:25.137Z,12.33
2018-09-12T04:17:32.596Z,12.34
2018-09-12T04:20:37.521Z,12.39
2018-09-12T04:23:42.492Z,12.43
2018-09-12T04:26:47.414Z,12.53
2018-09-12T04:29:52.776Z,12.53
2018-09-12T04:32:57.673Z,12.56
2018-09-12T04:36:02.598Z,12.58
2018-09-12T04:39:09.001Z,12.60
2018-09-12T04:42:14.066Z,12.56
2018-09-12T04:45:18.993Z,12.51
2018-09-12T04:48:23.920Z,12.45
2018-09-12T04:51:29.201Z,12.42
2018-09-12T04:54:34.148Z,12.48
2018-09-12T04:57:39.357Z,12.55
2018-09-12T05:00:44.297Z,12.58
2018-09-12T05:03:49.245Z,12.62
2018-09-12T05:06:54.190Z,12.61
2018-09-12T05:09:59.133Z,12.63
2018-09-12T05:13:04.162Z,12.67
2018-09-12T05:16:09.174Z,12.69
2018-09-12T05:19:14.160Z,12.72
2018-09-12T05:22:19.145Z,12.79
2018-09-12T05:25:24.133Z,12.79
2018-09-12T05:28:29.256Z,12.85
2018-09-12T05:31:34.193Z,12.82
2018-09-12T05:34:39.226Z,12.88
2018-09-12T05:37:44.254Z,12.94
2018-09-12T05:40:49.298Z,12.95
2018-09-12T05:43:54.400Z,12.95
2018-09-12T05:46:59.398Z,13.01
2018-09-12T05:50:04.731Z,13.04
2018-09-12T05:53:09.701Z,13.05
2018-09-12T05:56:14.708Z,13.16
2018-09-12T05:59:19.695Z,13.21
2018-09-12T06:02:24.827Z,13.25
2018-09-12T06:05:29.807Z,13.31
2018-09-12T06:08:34.784Z,13.38
2018-09-12T06:11:39.769Z,13.42
2018-09-12T06:14:44.762Z,13.53
2018-09-12T06:17:49.957Z,13.64
2018-09-12T06:20:54.963Z,13.76
2018-09-12T06:23:59.924Z,13.87
2018-09-12T06:27:04.860Z,14.03
2018-09-12T06:30:09.870Z,14.22
2018-09-12T06:33:14.801Z,14.48
2018-09-12T06:36:19.724Z,14.83
2018-09-12T06:39:24.877Z,15.18
2018-09-12T06:42:29.818Z,15.53
2018-09-12T06:45:34.764Z,15.85
2018-09-12T06:48:39.778Z,16.13
2018-09-12T06:51:44.692Z,16.45
2018-09-12T06:54:50.196Z,16.80
2018-09-12T06:57:55.144Z,17.19
2018-09-12T07:01:00.190Z,17.50
2018-09-12T07:04:05.386Z,17.87
2018-09-12T07:07:10.368Z,18.26
2018-09-12T07:10:15.476Z,18.64
2018-09-12T07:13:20.462Z,19.02
2018-09-12T07:16:25.445Z,19.39
2018-09-12T07:19:30.408Z,19.78
2018-09-12T07:22:35.345Z,20.17
2018-09-12T07:25:40.335Z,20.53
2018-09-12T07:28:45.273Z,20.88
2018-09-12T07:31:50.217Z,21.15
2018-09-12T07:34:55.159Z,21.49
2018-09-12T07:38:00.121Z,21.76
2018-09-12T07:41:05.109Z,22.05
2018-09-12T07:44:10.091Z,22.37
2018-09-12T07:47:15.116Z,22.63
2018-09-12T07:50:20.054Z,22.97
2018-09-12T07:53:25.067Z,23.32
2018-09-12T07:56:30.129Z,23.66
2018-09-12T07:59:34.946Z,24.02
2018-09-12T08:02:39.941Z,24.40
2018-09-12T08:05:44.884Z,24.64
2018-09-12T08:08:49.848Z,24.91
2018-09-12T08:11:54.820Z,25.26
2018-09-12T08:14:59.807Z,25.50
2018-09-12T08:18:04.938Z,25.82
2018-09-12T08:21:10.685Z,26.15
2018-09-12T08:24:15.657Z,26.54
2018-09-12T08:27:20.638Z,26.89
2018-09-12T08:30:25.640Z,27.00
2018-09-12T08:33:30.626Z,27.32
2018-09-12T08:36:35.684Z,27.70
2018-09-12T08:39:40.649Z,28.18
2018-09-12T08:42:45.643Z,28.54
2018-09-12T08:45:50.593Z,28.94
2018-09-12T08:48:55.538Z,29.19
2018-09-12T08:52:00.535Z,29.49
2018-09-12T08:55:05.869Z,29.73
2018-09-12T08:58:10.818Z,29.87
2018-09-12T09:01:15.839Z,30.09
2018-09-12T09:04:20.697Z,30.11
2018-09-12T09:07:25.635Z,30.25
2018-09-12T09:10:30.637Z,30.32
2018-09-12T09:13:35.496Z,30.36
2018-09-12T09:16:40.436Z,30.49
2018-09-12T09:19:45.389Z,30.74
2018-09-12T09:22:50.300Z,31.05
2018-09-12T09:25:55.224Z,31.04
2018-09-12T09:29:00.163Z,31.17
2018-09-12T09:32:05.250Z,31.23
2018-09-12T09:35:10.309Z,31.20
2018-09-12T09:38:15.173Z,31.34
2018-09-12T09:41:20.117Z,30.61
2018-09-12T09:44:25.045Z,30.57
2018-09-12T09:47:29.998Z,30.87
2018-09-12T09:50:34.916Z,30.89
2018-09-12T09:53:39.873Z,31.04
2018-09-12T09:56:44.837Z,31.14
2018-09-12T09:59:49.977Z,31.29
2018-09-12T10:03:00.828Z,30.91
2018-09-12T10:06:11.463Z,30.67
2018-09-12T10:09:22.165Z,30.44
2018-09-12T10:12:27.097Z,30.80
2018-09-12T10:15:32.026Z,31.20
2018-09-12T10:18:36.957Z,31.53
2018-09-12T10:21:41.873Z,31.75
2018-09-12T10:24:46.792Z,31.92
2018-09-12T10:27:51.732Z,32.15
2018-09-12T10:30:56.686Z,32.11
2018-09-12T10:34:01.606Z,32.27
2018-09-12T10:37:06.521Z,32.17
2018-09-12T10:40:11.513Z,31.99
2018-09-12T10:43:16.413Z,31.95
2018-09-12T10:46:21.434Z,31.76
2018-09-12T10:49:26.345Z,30.90
2018-09-12T10:52:31.262Z,31.14
2018-09-12T10:55:36.183Z,31.20
2018-09-12T10:58:41.118Z,31.44
2018-09-12T11:01:46.039Z,31.53
2018-09-12T11:04:50.958Z,31.58
2018-09-12T11:07:55.916Z,31.70
2018-09-12T11:11:00.862Z,31.60
2018-09-12T11:14:06.117Z,31.27
2018-09-12T11:17:11.034Z,31.41
2018-09-12T11:20:15.949Z,31.65
2018-09-12T11:23:20.925Z,31.73
2018-09-12T11:26:25.870Z,31.67
2018-09-12T11:29:30.771Z,31.78
2018-09-12T11:32:35.727Z,31.81
2018-09-12T11:35:40.625Z,31.84
2018-09-12T11:38:45.541Z,31.66
2018-09-12T11:41:50.466Z,31.57
2018-09-12T11:44:55.395Z,31.62
2018-09-12T11:48:00.297Z,31.29
2018-09-12T11:51:05.503Z,30.77
2018-09-12T11:54:10.559Z,31.07
2018-09-12T11:57:15.609Z,30.87
2018-09-12T12:00:20.641Z,31.11
2018-09-12T12:03:25.669Z,31.32
2018-09-12T12:06:30.775Z,31.41
2018-09-12T12:09:35.929Z,31.38
2018-09-12T12:12:40.941Z,31.40
2018-09-12T12:15:46.927Z,31.41
2018-09-12T12:18:52.509Z,31.42
2018-09-12T12:21:57.794Z,31.33
2018-09-12T12:25:02.949Z,31.02
2018-09-12T12:28:07.961Z,30.88
2018-09-12T12:31:13.399Z,30.77
2018-09-12T12:34:18.739Z,30.80
2018-09-12T12:37:24.277Z,30.79
2018-09-12T12:40:29.287Z,30.95
2018-09-12T12:43:34.299Z,31.00
2018-09-12T12:46:39.374Z,30.94
2018-09-12T12:49:44.442Z,30.77
2018-09-12T12:52:49.472Z,30.80
2018-09-12T12:55:54.773Z,30.71
2018-09-12T12:58:59.764Z,30.74
2018-09-12T13:02:05.251Z,30.93
2018-09-12T13:05:10.336Z,31.00
2018-09-12T13:08:15.773Z,30.71
2018-09-12T13:11:21.209Z,30.78
2018-09-12T13:14:26.204Z,30.92
2018-09-12T13:17:31.599Z,30.94
2018-09-12T13:20:36.600Z,31.00
2018-09-12T13:23:41.548Z,30.92
2018-09-12T13:26:46.622Z,30.93
2018-09-12T13:29:51.974Z,30.72
2018-09-12T13:32:57.173Z,30.82
2018-09-12T13:36:02.526Z,30.87
2018-09-12T13:39:13.477Z,30.83
2018-09-12T13:42:18.709Z,30.86
2018-09-12T13:45:24.020Z,30.65
2018-09-12T13:48:29.021Z,30.55
2018-09-12T13:51:34.381Z,30.59
2018-09-12T13:54:39.331Z,30.73
2018-09-12T13:57:44.700Z,30.64
2018-09-12T14:00:50.066Z,30.60
2018-09-12T14:03:55.180Z,30.71
2018-09-12T14:07:00.091Z,30.67
2018-09-12T14:10:05.297Z,30.51
2018-09-12T14:13:10.221Z,30.49
2018-09-12T14:16:15.136Z,30.44
2018-09-12T14:19:20.150Z,30.20
2018-09-12T14:22:25.040Z,30.24
2018-09-12T14:25:29.976Z,30.21
2018-09-12T14:28:34.902Z,30.17
2018-09-12T14:31:39.820Z,30.15
2018-09-12T14:34:44.765Z,30.10
2018-09-12T14:37:49.697Z,30.03
2018-09-12T14:40:54.626Z,29.96
2018-09-12T14:43:59.560Z,29.97
2018-09-12T14:47:04.705Z,29.97
2018-09-12T14:50:09.645Z,30.00
2018-09-12T14:53:14.578Z,29.91
2018-09-12T14:56:19.533Z,29.86
2018-09-12T14:59:25.587Z,29.89
2018-09-12T15:02:30.523Z,29.92
2018-09-12T15:05:35.441Z,29.94
2018-09-12T15:08:40.414Z,29.78
2018-09-12T15:11:45.384Z,29.69
2018-09-12T15:14:50.322Z,29.52
2018-09-12T15:17:55.278Z,29.48
2018-09-12T15:21:00.233Z,29.49
2018-09-12T15:24:05.393Z,29.46
2018-09-12T15:27:10.363Z,29.55
2018-09-12T15:30:15.350Z,29.47
2018-09-12T15:33:20.316Z,29.39
2018-09-12T15:36:25.247Z,29.44
2018-09-12T15:39:30.222Z,29.46
2018-09-12T15:42:35.386Z,29.44
2018-09-12T15:45:40.363Z,29.46
2018-09-12T15:48:45.309Z,29.31
2018-09-12T15:51:50.251Z,29.30
2018-09-12T15:54:55.226Z,29.25
2018-09-12T15:58:00.596Z,29.14
2018-09-12T16:01:05.622Z,29.14
2018-09-12T16:04:10.870Z,29.04
2018-09-12T16:07:16.392Z,28.99
2018-09-12T16:10:21.869Z,28.88
2018-09-12T16:13:27.296Z,28.73
2018-09-12T16:16:32.801Z,28.62
2018-09-12T16:19:38.110Z,28.76
2018-09-12T16:22:43.185Z,28.65
2018-09-12T16:25:48.172Z,28.57
2018-09-12T16:28:53.586Z,28.50
2018-09-12T16:31:58.627Z,28.39
2018-09-12T16:35:03.689Z,28.23
2018-09-12T16:38:08.713Z,28.24
2018-09-12T16:41:13.690Z,28.18
2018-09-12T16:44:20.405Z,28.13
2018-09-12T16:47:25.431Z,27.94
2018-09-12T16:50:30.869Z,27.96
2018-09-12T16:53:36.159Z,27.99
2018-09-12T16:56:41.302Z,27.88
2018-09-12T16:59:46.461Z,27.74
2018-09-12T17:02:51.887Z,27.46
2018-09-12T17:05:57.139Z,27.41
2018-09-12T17:09:02.360Z,27.33
2018-09-12T17:12:07.841Z,27.17
2018-09-12T17:15:12.785Z,27.00
2018-09-12T17:18:17.997Z,26.89
2018-09-12T17:21:22.937Z,26.76
2018-09-12T17:24:27.869Z,26.64
2018-09-12T17:27:33.022Z,26.50
2018-09-12T17:30:38.681Z,26.30
2018-09-12T17:33:43.837Z,26.10
2018-09-12T17:36:48.790Z,25.92
2018-09-12T17:39:53.851Z,25.74
2018-09-12T17:42:58.850Z,25.58
2018-09-12T17:46:04.133Z,25.42
2018-09-12T17:49:09.566Z,25.25
2018-09-12T17:52:14.936Z,25.10
2018-09-12T17:55:20.268Z,24.93
2018-09-12T17:58:25.218Z,24.75
2018-09-12T18:01:30.355Z,24.55
2018-09-12T18:04:35.325Z,24.48
2018-09-12T18:07:40.313Z,24.33
2018-09-12T18:10:45.509Z,24.19
2018-09-12T18:13:51.841Z,24.05
2018-09-12T18:16:57.044Z,23.87
2018-09-12T18:20:02.001Z,23.68
2018-09-12T18:23:07.382Z,23.57
2018-09-12T18:26:12.351Z,23.48
2018-09-12T18:29:18.094Z,23.34
2018-09-12T18:32:23.057Z,23.26
2018-09-12T18:35:28.301Z,23.16
2018-09-12T18:38:33.418Z,23.05
2018-09-12T18:41:38.404Z,22.96
2018-09-12T18:44:43.363Z,22.88
2018-09-12T18:47:48.749Z,22.77
2018-09-12T18:50:54.044Z,22.62
2018-09-12T18:53:59.329Z,22.53
2018-09-12T18:57:04.730Z,22.43
2018-09-12T19:00:09.953Z,22.30
2018-09-12T19:03:14.904Z,22.21
2018-09-12T19:06:19.914Z,22.13
2018-09-12T19:09:25.456Z,22.06
2018-09-12T19:12:30.626Z,21.94
2018-09-12T19:15:36.153Z,21.83
2018-09-12T19:18:41.774Z,21.78
2018-09-12T19:21:46.673Z,21.64
2018-09-12T19:24:51.661Z,21.49
2018-09-12T19:27:56.725Z,21.42
2018-09-12T19:31:01.760Z,21.31
2018-09-12T19:34:06.951Z,21.28
2018-09-12T19:37:12.166Z,21.19
2018-09-12T19:40:17.800Z,21.16
2018-09-12T19:43:22.896Z,21.11
2018-09-12T19:46:27.828Z,21.05
2018-09-12T19:49:32.767Z,20.94
2018-09-12T19:52:37.693Z,20.79
2018-09-12T19:55:42.641Z,20.70
2018-09-12T19:58:47.592Z,20.72
2018-09-12T20:01:52.524Z,20.57
2018-09-12T20:04:58.406Z,20.46
2018-09-12T20:08:03.373Z,20.45
2018-09-12T20:11:08.336Z,20.45
2018-09-12T20:14:13.351Z,20.37
2018-09-12T20:17:18.279Z,20.22
2018-09-12T20:20:23.236Z,20.27
2018-09-12T20:23:28.241Z,20.26
2018-09-12T20:26:33.189Z,20.21
2018-09-12T20:29:38.129Z,20.15
2018-09-12T20:32:43.040Z,20.23
2018-09-12T20:35:48.004Z,20.22
2018-09-12T20:38:52.916Z,20.23
2018-09-12T20:41:57.879Z,20.12
2018-09-12T20:45:02.823Z,19.83
2018-09-12T20:48:07.962Z,19.86
2018-09-12T20:51:12.893Z,19.91
2018-09-12T20:54:17.876Z,19.92
2018-09-12T20:57:22.836Z,19.90
2018-09-12T21:00:27.787Z,19.79
2018-09-12T21:03:32.729Z,19.67
2018-09-12T21:06:37.664Z,19.67
2018-09-12T21:13:00.244Z,19.81
2018-09-12T21:16:05.231Z,19.82
2018-09-12T21:19:10.178Z,19.88
2018-09-12T21:22:15.120Z,19.88
2018-09-12T21:25:20.062Z,19.88
2018-09-12T21:28:25.005Z,19.86
2018-09-12T21:31:29.957Z,19.81
2018-09-12T21:34:34.881Z,19.92
2018-09-12T21:37:39.940Z,19.84
2018-09-12T21:40:44.966Z,19.84
2018-09-12T21:43:49.921Z,19.89
2018-09-12T21:46:54.869Z,19.93
2018-09-12T21:49:59.810Z,19.89
2018-09-12T21:53:04.782Z,19.67
2018-09-12T21:56:09.962Z,19.60
2018-09-12T22:02:55.325Z,19.49
2018-09-12T22:06:00.264Z,19.44
2018-09-12T22:09:08.933Z,19.46
2018-09-12T22:12:13.911Z,19.46
2018-09-12T22:15:18.843Z,19.39
2018-09-12T22:18:23.781Z,19.31
2018-09-12T22:21:28.797Z,19.20
2018-09-12T22:24:33.745Z,19.17
2018-09-12T22:27:38.671Z,19.20
2018-09-12T22:30:43.818Z,19.17
2018-09-12T22:33:48.758Z,19.13
2018-09-12T22:36:53.676Z,19.06
2018-09-12T22:39:58.601Z,18.99
2018-09-12T22:43:03.524Z,18.96
2018-09-12T22:46:08.432Z,18.92
2018-09-12T22:49:13.354Z,18.83
2018-09-12T22:52:18.272Z,18.77
2018-09-12T22:55:23.191Z,18.65
2018-09-12T22:58:28.535Z,18.58
2018-09-12T23:01:33.479Z,18.49
2018-09-12T23:04:38.425Z,18.44
2018-09-12T23:07:43.344Z,18.43
2018-09-12T23:10:48.362Z,18.39
2018-09-12T23:13:53.322Z,18.39
2018-09-12T23:16:58.258Z,18.34
2018-09-12T23:20:03.211Z,18.26
2018-09-12T23:23:08.162Z,18.20
2018-09-12T23:26:13.087Z,18.20
2018-09-12T23:29:18.035Z,18.17
2018-09-12T23:32:22.965Z,18.17
2018-09-12T23:35:27.904Z,18.12
2018-09-12T23:38:32.840Z,18.08
2018-09-12T23:41:37.820Z,18.07
2018-09-12T23:44:42.743Z,18.02
2018-09-12T23:47:47.676Z,17.97
2018-09-12T23:50:52.612Z,17.96
2018-09-12T23:53:57.538Z,17.92
2018-09-12T23:57:02.435Z,17.84
